sensor_id;sensor_type;location;lat;lon;timestamp;temperature;humidity
981;DHT22;479;53.514;9.994;2023-01-09T00:02:13;6.10;99.90
981;DHT22;479;53.514;9.994;2023-01-09T00:04:42;6.10;99.90
981;DHT22;479;53.514;9.994;2023-01-09T00:07:08;6.10;99.90
981;DHT22;479;53.514;9.994;2023-01-09T00:09:35;6.10;99.90
981;DHT22;479;53.514;9.994;2023-01-09T00:12:03;6.10;99.90
981;DHT22;479;53.514;9.994;2023-01-09T00:14:30;6.00;99.90
981;DHT22;479;53.514;9.994;2023-01-09T00:16:56;6.00;99.90
981;DHT22;479;53.514;9.994;2023-01-09T00:19:23;6.00;99.90
981;DHT22;479;53.514;9.994;2023-01-09T00:21:51;6.00;99.90
981;DHT22;479;53.514;9.994;2023-01-09T00:24:18;5.90;99.90
981;DHT22;479;53.514;9.994;2023-01-09T00:26:45;5.90;99.90
981;DHT22;479;53.514;9.994;2023-01-09T00:29:13;5.90;99.90
981;DHT22;479;53.514;9.994;2023-01-09T00:31:40;5.90;99.90
981;DHT22;479;53.514;9.994;2023-01-09T00:34:08;5.90;99.90
981;DHT22;479;53.514;9.994;2023-01-09T00:36:35;6.00;99.90
981;DHT22;479;53.514;9.994;2023-01-09T00:39:04;6.00;99.90
981;DHT22;479;53.514;9.994;2023-01-09T00:41:34;6.00;99.90
981;DHT22;479;53.514;9.994;2023-01-09T00:44:07;6.00;99.90
981;DHT22;479;53.514;9.994;2023-01-09T00:46:44;6.10;99.90
981;DHT22;479;53.514;9.994;2023-01-09T00:49:13;6.20;99.90
981;DHT22;479;53.514;9.994;2023-01-09T00:51:41;6.20;99.90
981;DHT22;479;53.514;9.994;2023-01-09T00:54:11;6.20;99.90
981;DHT22;479;53.514;9.994;2023-01-09T00:56:45;6.10;99.90
981;DHT22;479;53.514;9.994;2023-01-09T00:59:14;6.10;99.90
981;DHT22;479;53.514;9.994;2023-01-09T01:01:43;6.10;99.90
981;DHT22;479;53.514;9.994;2023-01-09T01:04:10;6.00;99.90
981;DHT22;479;53.514;9.994;2023-01-09T01:06:55;6.00;99.90
981;DHT22;479;53.514;9.994;2023-01-09T01:09:42;5.90;99.90
981;DHT22;479;53.514;9.994;2023-01-09T01:12:09;5.90;99.90
981;DHT22;479;53.514;9.994;2023-01-09T01:14:37;5.90;99.90
981;DHT22;479;53.514;9.994;2023-01-09T01:17:05;5.90;99.90
981;DHT22;479;53.514;9.994;2023-01-09T01:19:32;5.90;99.90
981;DHT22;479;53.514;9.994;2023-01-09T01:21:59;5.90;99.90
981;DHT22;479;53.514;9.994;2023-01-09T01:24:26;5.90;99.90
981;DHT22;479;53.514;9.994;2023-01-09T01:26:54;5.90;99.90
981;DHT22;479;53.514;9.994;2023-01-09T01:29:27;5.90;99.90
981;DHT22;479;53.514;9.994;2023-01-09T01:31:54;5.90;99.90
981;DHT22;479;53.514;9.994;2023-01-09T01:34:21;5.90;99.90
981;DHT22;479;53.514;9.994;2023-01-09T01:36:48;5.90;99.90
981;DHT22;479;53.514;9.994;2023-01-09T01:39:15;5.90;99.90
981;DHT22;479;53.514;9.994;2023-01-09T01:41:42;5.80;99.90
981;DHT22;479;53.514;9.994;2023-01-09T01:47:11;5.80;99.90
981;DHT22;479;53.514;9.994;2023-01-09T01:49:38;5.80;99.90
981;DHT22;479;53.514;9.994;2023-01-09T01:52:05;5.80;99.90
981;DHT22;479;53.514;9.994;2023-01-09T01:54:33;5.80;99.90
981;DHT22;479;53.514;9.994;2023-01-09T01:57:01;5.80;99.90
981;DHT22;479;53.514;9.994;2023-01-09T01:59:36;5.80;99.90
981;DHT22;479;53.514;9.994;2023-01-09T02:02:03;5.80;99.90
981;DHT22;479;53.514;9.994;2023-01-09T02:04:34;5.80;99.90
981;DHT22;479;53.514;9.994;2023-01-09T02:07:06;5.80;99.90
981;DHT22;479;53.514;9.994;2023-01-09T02:09:33;5.90;99.90
981;DHT22;479;53.514;9.994;2023-01-09T02:12:00;5.90;99.90
981;DHT22;479;53.514;9.994;2023-01-09T02:14:30;5.90;99.90
981;DHT22;479;53.514;9.994;2023-01-09T02:17:03;6.00;99.90
981;DHT22;479;53.514;9.994;2023-01-09T02:22:38;6.10;99.90
981;DHT22;479;53.514;9.994;2023-01-09T02:25:25;6.20;99.90
981;DHT22;479;53.514;9.994;2023-01-09T02:28:19;6.20;99.90
981;DHT22;479;53.514;9.994;2023-01-09T02:30:56;6.10;99.90
981;DHT22;479;53.514;9.994;2023-01-09T02:33:46;6.20;99.90
981;DHT22;479;53.514;9.994;2023-01-09T02:36:23;6.10;99.90
981;DHT22;479;53.514;9.994;2023-01-09T02:39:06;6.20;99.90
981;DHT22;479;53.514;9.994;2023-01-09T02:41:43;6.20;99.90
981;DHT22;479;53.514;9.994;2023-01-09T02:44:19;6.20;99.90
981;DHT22;479;53.514;9.994;2023-01-09T02:46:59;6.20;99.90
981;DHT22;479;53.514;9.994;2023-01-09T02:49:27;6.20;99.90
981;DHT22;479;53.514;9.994;2023-01-09T02:52:03;6.20;99.90
981;DHT22;479;53.514;9.994;2023-01-09T02:54:41;6.30;99.90
981;DHT22;479;53.514;9.994;2023-01-09T02:57:14;6.30;99.90
981;DHT22;479;53.514;9.994;2023-01-09T02:59:55;6.40;99.90
981;DHT22;479;53.514;9.994;2023-01-09T03:02:35;6.50;99.90
981;DHT22;479;53.514;9.994;2023-01-09T03:05:09;6.50;99.90
981;DHT22;479;53.514;9.994;2023-01-09T03:07:41;6.50;99.90
981;DHT22;479;53.514;9.994;2023-01-09T03:10:14;6.60;99.90
981;DHT22;479;53.514;9.994;2023-01-09T03:12:44;6.60;99.90
981;DHT22;479;53.514;9.994;2023-01-09T03:15:14;6.70;99.90
981;DHT22;479;53.514;9.994;2023-01-09T03:17:45;6.70;99.90
981;DHT22;479;53.514;9.994;2023-01-09T03:20:16;6.80;99.90
981;DHT22;479;53.514;9.994;2023-01-09T03:22:52;6.70;99.90
981;DHT22;479;53.514;9.994;2023-01-09T03:25:20;6.80;99.90
981;DHT22;479;53.514;9.994;2023-01-09T03:27:47;6.90;99.90
981;DHT22;479;53.514;9.994;2023-01-09T03:30:15;6.90;99.90
981;DHT22;479;53.514;9.994;2023-01-09T03:32:43;6.90;99.90
981;DHT22;479;53.514;9.994;2023-01-09T03:35:10;7.00;99.90
981;DHT22;479;53.514;9.994;2023-01-09T03:37:37;7.00;99.90
981;DHT22;479;53.514;9.994;2023-01-09T03:40:05;7.10;99.90
981;DHT22;479;53.514;9.994;2023-01-09T03:42:32;7.10;99.90
981;DHT22;479;53.514;9.994;2023-01-09T03:44:59;7.10;99.90
981;DHT22;479;53.514;9.994;2023-01-09T03:47:26;7.10;99.90
981;DHT22;479;53.514;9.994;2023-01-09T03:49:54;7.20;99.90
981;DHT22;479;53.514;9.994;2023-01-09T03:52:21;7.20;99.90
981;DHT22;479;53.514;9.994;2023-01-09T03:54:48;7.20;99.90
981;DHT22;479;53.514;9.994;2023-01-09T03:57:15;7.20;99.90
981;DHT22;479;53.514;9.994;2023-01-09T03:59:41;7.30;99.90
981;DHT22;479;53.514;9.994;2023-01-09T04:02:08;7.30;99.90
981;DHT22;479;53.514;9.994;2023-01-09T04:04:35;7.30;99.90
981;DHT22;479;53.514;9.994;2023-01-09T04:07:03;7.30;99.90
981;DHT22;479;53.514;9.994;2023-01-09T04:09:30;7.40;99.90
981;DHT22;479;53.514;9.994;2023-01-09T04:11:57;7.40;99.90
981;DHT22;479;53.514;9.994;2023-01-09T04:14:24;7.40;99.90
981;DHT22;479;53.514;9.994;2023-01-09T04:16:51;7.40;99.90
981;DHT22;479;53.514;9.994;2023-01-09T04:19:18;7.40;99.90
981;DHT22;479;53.514;9.994;2023-01-09T04:21:44;7.40;99.90
981;DHT22;479;53.514;9.994;2023-01-09T04:24:13;7.40;99.90
981;DHT22;479;53.514;9.994;2023-01-09T04:26:39;7.40;99.90
981;DHT22;479;53.514;9.994;2023-01-09T04:29:06;7.40;99.90
981;DHT22;479;53.514;9.994;2023-01-09T04:31:33;7.40;99.90
981;DHT22;479;53.514;9.994;2023-01-09T04:34:00;7.40;99.90
981;DHT22;479;53.514;9.994;2023-01-09T04:36:27;7.40;99.90
981;DHT22;479;53.514;9.994;2023-01-09T04:38:54;7.40;99.90
981;DHT22;479;53.514;9.994;2023-01-09T04:41:22;7.50;99.90
981;DHT22;479;53.514;9.994;2023-01-09T04:44:06;7.50;99.90
981;DHT22;479;53.514;9.994;2023-01-09T04:46:33;7.50;99.90
981;DHT22;479;53.514;9.994;2023-01-09T04:49:00;7.60;99.90
981;DHT22;479;53.514;9.994;2023-01-09T04:51:26;7.50;99.90
981;DHT22;479;53.514;9.994;2023-01-09T04:53:53;7.50;99.90
981;DHT22;479;53.514;9.994;2023-01-09T04:56:21;7.50;99.90
981;DHT22;479;53.514;9.994;2023-01-09T04:58:48;7.50;99.90
981;DHT22;479;53.514;9.994;2023-01-09T05:01:15;7.50;99.90
981;DHT22;479;53.514;9.994;2023-01-09T05:03:42;7.50;99.90
981;DHT22;479;53.514;9.994;2023-01-09T05:06:09;7.50;99.90
981;DHT22;479;53.514;9.994;2023-01-09T05:08:36;7.40;99.90
981;DHT22;479;53.514;9.994;2023-01-09T05:11:03;7.40;99.90
981;DHT22;479;53.514;9.994;2023-01-09T05:13:31;7.40;99.90
981;DHT22;479;53.514;9.994;2023-01-09T05:15:58;7.40;99.90
981;DHT22;479;53.514;9.994;2023-01-09T05:18:24;7.40;99.90
981;DHT22;479;53.514;9.994;2023-01-09T05:20:51;7.40;99.90
981;DHT22;479;53.514;9.994;2023-01-09T05:23:18;7.40;99.90
981;DHT22;479;53.514;9.994;2023-01-09T05:25:45;7.40;99.90
981;DHT22;479;53.514;9.994;2023-01-09T05:28:12;7.40;99.90
981;DHT22;479;53.514;9.994;2023-01-09T05:30:40;7.40;99.90
981;DHT22;479;53.514;9.994;2023-01-09T05:33:07;7.40;99.90
981;DHT22;479;53.514;9.994;2023-01-09T05:35:34;7.40;99.90
981;DHT22;479;53.514;9.994;2023-01-09T05:38:01;7.40;99.90
981;DHT22;479;53.514;9.994;2023-01-09T05:40:28;7.40;99.90
981;DHT22;479;53.514;9.994;2023-01-09T05:42:54;7.50;99.90
981;DHT22;479;53.514;9.994;2023-01-09T05:45:21;7.40;99.90
981;DHT22;479;53.514;9.994;2023-01-09T05:47:49;7.40;99.90
981;DHT22;479;53.514;9.994;2023-01-09T05:50:16;7.40;99.90
981;DHT22;479;53.514;9.994;2023-01-09T05:52:43;7.40;99.90
981;DHT22;479;53.514;9.994;2023-01-09T05:55:11;7.40;99.90
981;DHT22;479;53.514;9.994;2023-01-09T05:57:38;7.40;99.90
981;DHT22;479;53.514;9.994;2023-01-09T06:00:06;7.40;99.90
981;DHT22;479;53.514;9.994;2023-01-09T06:02:33;7.40;99.90
981;DHT22;479;53.514;9.994;2023-01-09T06:05:01;7.40;99.90
981;DHT22;479;53.514;9.994;2023-01-09T06:07:29;7.40;99.90
981;DHT22;479;53.514;9.994;2023-01-09T06:09:59;7.30;99.90
981;DHT22;479;53.514;9.994;2023-01-09T06:12:26;7.30;99.90
981;DHT22;479;53.514;9.994;2023-01-09T06:14:53;7.30;99.90
981;DHT22;479;53.514;9.994;2023-01-09T06:17:19;7.30;99.90
981;DHT22;479;53.514;9.994;2023-01-09T06:19:46;7.40;99.90
981;DHT22;479;53.514;9.994;2023-01-09T06:22:14;7.30;99.90
981;DHT22;479;53.514;9.994;2023-01-09T06:24:41;7.40;99.90
981;DHT22;479;53.514;9.994;2023-01-09T06:27:08;7.30;99.90
981;DHT22;479;53.514;9.994;2023-01-09T06:29:37;7.30;99.90
981;DHT22;479;53.514;9.994;2023-01-09T06:32:04;7.30;99.90
981;DHT22;479;53.514;9.994;2023-01-09T06:34:31;7.40;99.90
981;DHT22;479;53.514;9.994;2023-01-09T06:36:58;7.40;99.90
981;DHT22;479;53.514;9.994;2023-01-09T06:39:26;7.40;99.90
981;DHT22;479;53.514;9.994;2023-01-09T06:41:53;7.50;99.90
981;DHT22;479;53.514;9.994;2023-01-09T06:44:20;7.40;99.90
981;DHT22;479;53.514;9.994;2023-01-09T06:46:47;7.40;99.90
981;DHT22;479;53.514;9.994;2023-01-09T06:49:14;7.40;99.90
981;DHT22;479;53.514;9.994;2023-01-09T06:51:42;7.30;99.90
981;DHT22;479;53.514;9.994;2023-01-09T06:54:09;7.30;99.90
981;DHT22;479;53.514;9.994;2023-01-09T06:56:37;7.30;99.90
981;DHT22;479;53.514;9.994;2023-01-09T06:59:04;7.30;99.90
981;DHT22;479;53.514;9.994;2023-01-09T07:01:31;7.40;99.90
981;DHT22;479;53.514;9.994;2023-01-09T07:03:57;7.40;99.90
981;DHT22;479;53.514;9.994;2023-01-09T07:06:24;7.30;99.90
981;DHT22;479;53.514;9.994;2023-01-09T07:08:51;7.20;99.90
981;DHT22;479;53.514;9.994;2023-01-09T07:11:18;7.20;99.90
981;DHT22;479;53.514;9.994;2023-01-09T07:13:46;7.20;99.90
981;DHT22;479;53.514;9.994;2023-01-09T07:16:13;7.10;99.90
981;DHT22;479;53.514;9.994;2023-01-09T07:18:40;7.10;99.90
981;DHT22;479;53.514;9.994;2023-01-09T07:21:07;7.10;99.90
981;DHT22;479;53.514;9.994;2023-01-09T07:23:35;7.10;99.90
981;DHT22;479;53.514;9.994;2023-01-09T07:26:02;7.10;99.90
981;DHT22;479;53.514;9.994;2023-01-09T07:28:30;7.10;99.90
981;DHT22;479;53.514;9.994;2023-01-09T07:30:58;7.10;99.90
981;DHT22;479;53.514;9.994;2023-01-09T07:33:27;7.10;99.90
981;DHT22;479;53.514;9.994;2023-01-09T07:35:54;7.10;99.90
981;DHT22;479;53.514;9.994;2023-01-09T07:38:21;7.00;99.90
981;DHT22;479;53.514;9.994;2023-01-09T07:40:48;7.00;99.90
981;DHT22;479;53.514;9.994;2023-01-09T07:43:15;7.00;99.90
981;DHT22;479;53.514;9.994;2023-01-09T07:45:42;7.00;99.90
981;DHT22;479;53.514;9.994;2023-01-09T07:48:10;7.00;99.90
981;DHT22;479;53.514;9.994;2023-01-09T07:50:37;7.00;99.90
981;DHT22;479;53.514;9.994;2023-01-09T07:53:03;7.00;99.90
981;DHT22;479;53.514;9.994;2023-01-09T07:55:30;7.10;99.90
981;DHT22;479;53.514;9.994;2023-01-09T07:57:57;7.10;99.90
981;DHT22;479;53.514;9.994;2023-01-09T08:00:24;7.10;99.90
981;DHT22;479;53.514;9.994;2023-01-09T08:02:52;7.10;99.90
981;DHT22;479;53.514;9.994;2023-01-09T08:05:20;7.10;99.90
981;DHT22;479;53.514;9.994;2023-01-09T08:07:47;7.20;99.90
981;DHT22;479;53.514;9.994;2023-01-09T08:10:15;7.20;99.90
981;DHT22;479;53.514;9.994;2023-01-09T08:12:44;7.20;99.90
981;DHT22;479;53.514;9.994;2023-01-09T08:15:12;7.30;99.90
981;DHT22;479;53.514;9.994;2023-01-09T08:17:40;7.20;99.90
981;DHT22;479;53.514;9.994;2023-01-09T08:20:09;7.30;99.90
981;DHT22;479;53.514;9.994;2023-01-09T08:22:38;7.20;99.90
981;DHT22;479;53.514;9.994;2023-01-09T08:25:07;7.20;99.90
981;DHT22;479;53.514;9.994;2023-01-09T08:27:34;7.20;99.90
981;DHT22;479;53.514;9.994;2023-01-09T08:30:01;7.20;99.90
981;DHT22;479;53.514;9.994;2023-01-09T08:32:28;7.20;99.90
981;DHT22;479;53.514;9.994;2023-01-09T08:34:54;7.20;99.90
981;DHT22;479;53.514;9.994;2023-01-09T08:37:21;7.20;99.90
981;DHT22;479;53.514;9.994;2023-01-09T08:39:50;7.20;99.90
981;DHT22;479;53.514;9.994;2023-01-09T08:42:17;7.20;99.90
981;DHT22;479;53.514;9.994;2023-01-09T08:45:03;7.20;99.90
981;DHT22;479;53.514;9.994;2023-01-09T08:47:47;7.10;99.90
981;DHT22;479;53.514;9.994;2023-01-09T08:50:14;7.10;99.90
981;DHT22;479;53.514;9.994;2023-01-09T08:52:41;7.10;99.90
981;DHT22;479;53.514;9.994;2023-01-09T08:55:09;7.10;99.90
981;DHT22;479;53.514;9.994;2023-01-09T08:57:36;7.20;99.90
981;DHT22;479;53.514;9.994;2023-01-09T09:00:04;7.20;99.90
981;DHT22;479;53.514;9.994;2023-01-09T09:02:30;7.20;99.90
981;DHT22;479;53.514;9.994;2023-01-09T09:04:57;7.30;99.90
981;DHT22;479;53.514;9.994;2023-01-09T09:07:24;7.30;99.90
981;DHT22;479;53.514;9.994;2023-01-09T09:09:52;7.60;99.90
981;DHT22;479;53.514;9.994;2023-01-09T09:12:21;7.70;99.90
981;DHT22;479;53.514;9.994;2023-01-09T09:14:48;7.80;99.90
981;DHT22;479;53.514;9.994;2023-01-09T09:17:32;7.80;99.90
981;DHT22;479;53.514;9.994;2023-01-09T09:19:59;7.80;99.90
981;DHT22;479;53.514;9.994;2023-01-09T09:22:26;7.80;99.90
981;DHT22;479;53.514;9.994;2023-01-09T09:24:53;7.90;99.90
981;DHT22;479;53.514;9.994;2023-01-09T09:27:21;7.90;99.90
981;DHT22;479;53.514;9.994;2023-01-09T09:29:48;7.80;99.90
981;DHT22;479;53.514;9.994;2023-01-09T09:32:15;7.80;99.90
981;DHT22;479;53.514;9.994;2023-01-09T09:34:42;7.70;99.90
981;DHT22;479;53.514;9.994;2023-01-09T09:37:08;7.70;99.90
981;DHT22;479;53.514;9.994;2023-01-09T09:39:35;7.70;99.90
981;DHT22;479;53.514;9.994;2023-01-09T09:42:28;7.50;99.90
981;DHT22;479;53.514;9.994;2023-01-09T09:45:25;7.50;99.90
981;DHT22;479;53.514;9.994;2023-01-09T09:48:02;7.40;99.90
981;DHT22;479;53.514;9.994;2023-01-09T09:50:56;7.50;99.90
981;DHT22;479;53.514;9.994;2023-01-09T09:53:28;7.40;99.90
981;DHT22;479;53.514;9.994;2023-01-09T09:55:57;7.40;99.90
981;DHT22;479;53.514;9.994;2023-01-09T09:58:30;7.50;99.90
981;DHT22;479;53.514;9.994;2023-01-09T10:00:59;7.50;99.90
981;DHT22;479;53.514;9.994;2023-01-09T10:03:31;7.40;99.90
981;DHT22;479;53.514;9.994;2023-01-09T10:06:04;7.50;99.90
981;DHT22;479;53.514;9.994;2023-01-09T10:08:37;7.50;99.90
981;DHT22;479;53.514;9.994;2023-01-09T10:11:11;7.60;99.90
981;DHT22;479;53.514;9.994;2023-01-09T10:13:41;7.60;99.90
981;DHT22;479;53.514;9.994;2023-01-09T10:16:31;7.60;99.90
981;DHT22;479;53.514;9.994;2023-01-09T10:19:14;7.60;99.90
981;DHT22;479;53.514;9.994;2023-01-09T10:21:50;7.50;99.90
981;DHT22;479;53.514;9.994;2023-01-09T10:24:35;7.60;99.90
981;DHT22;479;53.514;9.994;2023-01-09T10:27:16;7.50;99.90
981;DHT22;479;53.514;9.994;2023-01-09T10:30:01;7.40;99.90
981;DHT22;479;53.514;9.994;2023-01-09T10:32:39;7.30;99.90
981;DHT22;479;53.514;9.994;2023-01-09T10:38:29;7.40;99.90
981;DHT22;479;53.514;9.994;2023-01-09T10:41:01;7.30;99.90
981;DHT22;479;53.514;9.994;2023-01-09T10:43:33;7.40;99.90
981;DHT22;479;53.514;9.994;2023-01-09T10:46:06;7.60;99.90
981;DHT22;479;53.514;9.994;2023-01-09T10:48:36;7.60;99.90
981;DHT22;479;53.514;9.994;2023-01-09T10:51:13;7.60;99.90
981;DHT22;479;53.514;9.994;2023-01-09T10:53:44;7.80;99.90
981;DHT22;479;53.514;9.994;2023-01-09T10:56:15;7.80;99.90
981;DHT22;479;53.514;9.994;2023-01-09T10:58:45;7.70;99.90
981;DHT22;479;53.514;9.994;2023-01-09T11:01:14;7.80;99.90
981;DHT22;479;53.514;9.994;2023-01-09T11:03:40;7.70;99.90
981;DHT22;479;53.514;9.994;2023-01-09T11:06:17;7.70;99.90
981;DHT22;479;53.514;9.994;2023-01-09T11:08:47;7.70;99.90
981;DHT22;479;53.514;9.994;2023-01-09T11:11:31;7.90;99.90
981;DHT22;479;53.514;9.994;2023-01-09T11:14:04;8.00;99.90
981;DHT22;479;53.514;9.994;2023-01-09T11:16:32;8.20;99.90
981;DHT22;479;53.514;9.994;2023-01-09T11:19:00;8.40;99.90
981;DHT22;479;53.514;9.994;2023-01-09T11:21:33;8.50;99.90
981;DHT22;479;53.514;9.994;2023-01-09T11:24:25;8.50;99.90
981;DHT22;479;53.514;9.994;2023-01-09T11:27:16;8.60;99.90
981;DHT22;479;53.514;9.994;2023-01-09T11:30:06;8.90;99.90
981;DHT22;479;53.514;9.994;2023-01-09T11:32:39;9.30;99.90
981;DHT22;479;53.514;9.994;2023-01-09T11:35:16;9.20;99.90
981;DHT22;479;53.514;9.994;2023-01-09T11:37:44;9.10;99.90
981;DHT22;479;53.514;9.994;2023-01-09T11:40:17;8.90;99.90
981;DHT22;479;53.514;9.994;2023-01-09T11:43:00;8.90;99.90
981;DHT22;479;53.514;9.994;2023-01-09T11:45:29;8.90;99.90
981;DHT22;479;53.514;9.994;2023-01-09T11:47:59;8.90;99.90
981;DHT22;479;53.514;9.994;2023-01-09T11:50:27;8.90;99.90
981;DHT22;479;53.514;9.994;2023-01-09T11:53:12;8.70;99.90
981;DHT22;479;53.514;9.994;2023-01-09T11:55:39;8.70;99.90
981;DHT22;479;53.514;9.994;2023-01-09T11:58:11;8.70;99.90
981;DHT22;479;53.514;9.994;2023-01-09T12:00:44;8.60;99.90
981;DHT22;479;53.514;9.994;2023-01-09T12:03:22;8.60;99.90
981;DHT22;479;53.514;9.994;2023-01-09T12:05:55;8.50;99.90
981;DHT22;479;53.514;9.994;2023-01-09T12:08:32;8.50;99.90
981;DHT22;479;53.514;9.994;2023-01-09T12:11:21;8.50;99.90
981;DHT22;479;53.514;9.994;2023-01-09T12:14:12;8.50;99.90
981;DHT22;479;53.514;9.994;2023-01-09T12:16:53;8.60;99.90
981;DHT22;479;53.514;9.994;2023-01-09T12:22:26;8.50;99.90
981;DHT22;479;53.514;9.994;2023-01-09T12:25:12;8.40;99.90
981;DHT22;479;53.514;9.994;2023-01-09T12:27:53;8.50;99.90
981;DHT22;479;53.514;9.994;2023-01-09T12:30:33;8.40;99.90
981;DHT22;479;53.514;9.994;2023-01-09T12:33:18;8.40;99.90
981;DHT22;479;53.514;9.994;2023-01-09T12:35:54;8.40;99.90
981;DHT22;479;53.514;9.994;2023-01-09T12:38:39;8.30;99.90
981;DHT22;479;53.514;9.994;2023-01-09T12:41:19;8.30;99.90
981;DHT22;479;53.514;9.994;2023-01-09T12:44:01;8.30;99.90
981;DHT22;479;53.514;9.994;2023-01-09T12:46:36;8.30;99.90
981;DHT22;479;53.514;9.994;2023-01-09T12:49:18;8.30;99.90
981;DHT22;479;53.514;9.994;2023-01-09T12:51:53;8.30;99.90
981;DHT22;479;53.514;9.994;2023-01-09T12:54:32;8.30;99.90
981;DHT22;479;53.514;9.994;2023-01-09T12:57:05;8.20;99.90
981;DHT22;479;53.514;9.994;2023-01-09T12:59:39;8.30;99.90
981;DHT22;479;53.514;9.994;2023-01-09T13:02:15;8.20;99.90
981;DHT22;479;53.514;9.994;2023-01-09T13:04:50;8.30;99.90
981;DHT22;479;53.514;9.994;2023-01-09T13:07:23;8.30;99.90
981;DHT22;479;53.514;9.994;2023-01-09T13:09:54;8.30;99.90
981;DHT22;479;53.514;9.994;2023-01-09T13:12:23;8.40;99.90
981;DHT22;479;53.514;9.994;2023-01-09T13:14:54;8.30;99.90
981;DHT22;479;53.514;9.994;2023-01-09T13:17:26;8.30;99.90
981;DHT22;479;53.514;9.994;2023-01-09T13:19:53;8.40;99.90
981;DHT22;479;53.514;9.994;2023-01-09T13:22:24;8.40;99.90
981;DHT22;479;53.514;9.994;2023-01-09T13:25:05;8.40;99.90
981;DHT22;479;53.514;9.994;2023-01-09T13:27:38;8.40;99.90
981;DHT22;479;53.514;9.994;2023-01-09T13:30:16;8.40;99.90
981;DHT22;479;53.514;9.994;2023-01-09T13:32:51;8.30;99.90
981;DHT22;479;53.514;9.994;2023-01-09T13:35:21;8.30;99.90
981;DHT22;479;53.514;9.994;2023-01-09T13:37:51;8.20;99.90
981;DHT22;479;53.514;9.994;2023-01-09T13:40:27;8.40;99.90
981;DHT22;479;53.514;9.994;2023-01-09T13:42:56;8.40;99.90
981;DHT22;479;53.514;9.994;2023-01-09T13:45:24;8.30;99.90
981;DHT22;479;53.514;9.994;2023-01-09T13:48:30;8.30;99.90
981;DHT22;479;53.514;9.994;2023-01-09T13:57:30;8.30;99.90
981;DHT22;479;53.514;9.994;2023-01-09T14:03:18;8.20;99.90
981;DHT22;479;53.514;9.994;2023-01-09T14:06:14;8.20;99.90
981;DHT22;479;53.514;9.994;2023-01-09T14:08:43;8.20;99.90
981;DHT22;479;53.514;9.994;2023-01-09T14:11:18;8.20;99.90
981;DHT22;479;53.514;9.994;2023-01-09T14:13:58;8.20;99.90
981;DHT22;479;53.514;9.994;2023-01-09T14:16:26;8.20;99.90
981;DHT22;479;53.514;9.994;2023-01-09T14:19:03;8.10;99.90
981;DHT22;479;53.514;9.994;2023-01-09T14:21:45;8.10;99.90
981;DHT22;479;53.514;9.994;2023-01-09T14:24:24;8.00;99.90
981;DHT22;479;53.514;9.994;2023-01-09T14:26:53;8.00;99.90
981;DHT22;479;53.514;9.994;2023-01-09T14:29:41;7.90;99.90
981;DHT22;479;53.514;9.994;2023-01-09T14:32:44;7.90;99.90
981;DHT22;479;53.514;9.994;2023-01-09T14:35:21;7.90;99.90
981;DHT22;479;53.514;9.994;2023-01-09T14:38:03;7.90;99.90
981;DHT22;479;53.514;9.994;2023-01-09T14:40:32;7.90;99.90
981;DHT22;479;53.514;9.994;2023-01-09T14:43:11;8.00;99.90
981;DHT22;479;53.514;9.994;2023-01-09T14:45:43;8.10;99.90
981;DHT22;479;53.514;9.994;2023-01-09T14:48:12;8.00;99.90
981;DHT22;479;53.514;9.994;2023-01-09T14:50:42;8.00;99.90
981;DHT22;479;53.514;9.994;2023-01-09T14:53:14;8.00;99.90
981;DHT22;479;53.514;9.994;2023-01-09T14:55:48;8.20;99.90
981;DHT22;479;53.514;9.994;2023-01-09T14:58:23;8.30;99.90
981;DHT22;479;53.514;9.994;2023-01-09T15:00:58;8.40;99.90
981;DHT22;479;53.514;9.994;2023-01-09T15:03:31;8.40;99.90
981;DHT22;479;53.514;9.994;2023-01-09T15:05:59;8.30;99.90
981;DHT22;479;53.514;9.994;2023-01-09T15:08:27;8.20;99.90
981;DHT22;479;53.514;9.994;2023-01-09T15:10:55;8.20;99.90
981;DHT22;479;53.514;9.994;2023-01-09T15:13:30;8.10;99.90
981;DHT22;479;53.514;9.994;2023-01-09T15:15:59;8.00;99.90
981;DHT22;479;53.514;9.994;2023-01-09T15:18:29;7.90;99.90
981;DHT22;479;53.514;9.994;2023-01-09T15:20:58;7.80;99.90
981;DHT22;479;53.514;9.994;2023-01-09T15:23:27;7.90;99.90
981;DHT22;479;53.514;9.994;2023-01-09T15:25:55;8.20;99.90
981;DHT22;479;53.514;9.994;2023-01-09T15:28:28;8.20;99.90
981;DHT22;479;53.514;9.994;2023-01-09T15:31:03;8.00;99.90
981;DHT22;479;53.514;9.994;2023-01-09T15:33:32;7.90;99.90
981;DHT22;479;53.514;9.994;2023-01-09T15:36:11;7.90;99.90
981;DHT22;479;53.514;9.994;2023-01-09T15:38:40;7.80;99.90
981;DHT22;479;53.514;9.994;2023-01-09T15:41:09;7.70;99.90
981;DHT22;479;53.514;9.994;2023-01-09T15:43:40;7.70;99.90
981;DHT22;479;53.514;9.994;2023-01-09T15:46:10;7.80;99.90
981;DHT22;479;53.514;9.994;2023-01-09T15:48:37;7.70;99.90
981;DHT22;479;53.514;9.994;2023-01-09T15:51:06;7.70;99.90
981;DHT22;479;53.514;9.994;2023-01-09T15:53:35;7.60;99.90
981;DHT22;479;53.514;9.994;2023-01-09T15:56:13;7.50;99.90
981;DHT22;479;53.514;9.994;2023-01-09T15:58:43;7.50;99.90
981;DHT22;479;53.514;9.994;2023-01-09T16:01:24;7.50;99.90
981;DHT22;479;53.514;9.994;2023-01-09T16:03:53;7.50;99.90
981;DHT22;479;53.514;9.994;2023-01-09T16:06:24;7.50;99.90
981;DHT22;479;53.514;9.994;2023-01-09T16:08:53;7.50;99.90
981;DHT22;479;53.514;9.994;2023-01-09T16:11:24;7.50;99.90
981;DHT22;479;53.514;9.994;2023-01-09T16:13:52;7.50;99.90
981;DHT22;479;53.514;9.994;2023-01-09T16:16:26;7.50;99.90
981;DHT22;479;53.514;9.994;2023-01-09T16:18:54;7.50;99.90
981;DHT22;479;53.514;9.994;2023-01-09T16:21:33;7.50;99.90
981;DHT22;479;53.514;9.994;2023-01-09T16:24:02;7.50;99.90
981;DHT22;479;53.514;9.994;2023-01-09T16:26:44;7.50;99.90
981;DHT22;479;53.514;9.994;2023-01-09T16:29:32;7.50;99.90
981;DHT22;479;53.514;9.994;2023-01-09T16:32:03;7.50;99.90
981;DHT22;479;53.514;9.994;2023-01-09T16:34:33;7.50;99.90
981;DHT22;479;53.514;9.994;2023-01-09T16:37:00;7.50;99.90
981;DHT22;479;53.514;9.994;2023-01-09T16:39:28;7.50;99.90
981;DHT22;479;53.514;9.994;2023-01-09T16:41:56;7.50;99.90
981;DHT22;479;53.514;9.994;2023-01-09T16:44:41;7.50;99.90
981;DHT22;479;53.514;9.994;2023-01-09T16:47:10;7.50;99.90
981;DHT22;479;53.514;9.994;2023-01-09T16:49:37;7.50;99.90
981;DHT22;479;53.514;9.994;2023-01-09T16:52:13;7.40;99.90
981;DHT22;479;53.514;9.994;2023-01-09T16:54:40;7.50;99.90
981;DHT22;479;53.514;9.994;2023-01-09T16:57:09;7.50;99.90
981;DHT22;479;53.514;9.994;2023-01-09T16:59:36;7.50;99.90
981;DHT22;479;53.514;9.994;2023-01-09T17:02:13;7.40;99.90
981;DHT22;479;53.514;9.994;2023-01-09T17:04:42;7.50;99.90
981;DHT22;479;53.514;9.994;2023-01-09T17:07:09;7.50;99.90
981;DHT22;479;53.514;9.994;2023-01-09T17:09:37;7.50;99.90
981;DHT22;479;53.514;9.994;2023-01-09T17:12:04;7.50;99.90
981;DHT22;479;53.514;9.994;2023-01-09T17:14:31;7.50;99.90
981;DHT22;479;53.514;9.994;2023-01-09T17:16:58;7.50;99.90
981;DHT22;479;53.514;9.994;2023-01-09T17:19:26;7.40;99.90
981;DHT22;479;53.514;9.994;2023-01-09T17:21:53;7.40;99.90
981;DHT22;479;53.514;9.994;2023-01-09T17:24:20;7.40;99.90
981;DHT22;479;53.514;9.994;2023-01-09T17:27:13;7.40;99.90
981;DHT22;479;53.514;9.994;2023-01-09T17:29:57;7.40;99.90
981;DHT22;479;53.514;9.994;2023-01-09T17:32:24;7.50;99.90
981;DHT22;479;53.514;9.994;2023-01-09T17:34:52;7.40;99.90
981;DHT22;479;53.514;9.994;2023-01-09T17:37:19;7.40;99.90
981;DHT22;479;53.514;9.994;2023-01-09T17:39:46;7.40;99.90
981;DHT22;479;53.514;9.994;2023-01-09T17:42:13;7.50;99.90